Map

Track Data

SID SEASON NUMBER BASIN SUBBASIN NAME ISO_TIME NATURE LAT LON WMO_WIND WMO_PRES WMO_AGENCY TRACK_TYPE DIST2LAND LANDFALL IFLAG USA_AGENCY USA_ATCF_ID USA_LAT USA_LON USA_RECORD USA_STATUS USA_WIND USA_PRES USA_SSHS USA_R34_NE USA_R34_SE USA_R34_SW USA_R34_NW USA_R50_NE USA_R50_SE USA_R50_SW USA_R50_NW USA_R64_NE USA_R64_SE USA_R64_SW USA_R64_NW USA_POCI USA_ROCI USA_RMW USA_EYE TOKYO_LAT TOKYO_LON TOKYO_GRADE TOKYO_WIND TOKYO_PRES TOKYO_R50_DIR TOKYO_R50_LONG TOKYO_R50_SHORT TOKYO_R30_DIR TOKYO_R30_LONG TOKYO_R30_SHORT TOKYO_LAND CMA_LAT CMA_LON CMA_CAT CMA_WIND CMA_PRES HKO_LAT HKO_LON HKO_CAT HKO_WIND HKO_PRES NEWDELHI_LAT NEWDELHI_LON NEWDELHI_GRADE NEWDELHI_WIND NEWDELHI_PRES NEWDELHI_CI NEWDELHI_DP NEWDELHI_POCI REUNION_LAT REUNION_LON REUNION_TYPE REUNION_WIND REUNION_PRES REUNION_TNUM REUNION_CI REUNION_RMW REUNION_R34_NE REUNION_R34_SE REUNION_R34_SW REUNION_R34_NW REUNION_R50_NE REUNION_R50_SE REUNION_R50_SW REUNION_R50_NW REUNION_R64_NE REUNION_R64_SE REUNION_R64_SW REUNION_R64_NW BOM_LAT BOM_LON BOM_TYPE BOM_WIND BOM_PRES BOM_TNUM BOM_CI BOM_RMW BOM_R34_NE BOM_R34_SE BOM_R34_SW BOM_R34_NW BOM_R50_NE BOM_R50_SE BOM_R50_SW BOM_R50_NW BOM_R64_NE BOM_R64_SE BOM_R64_SW BOM_R64_NW BOM_ROCI BOM_POCI BOM_EYE BOM_POS_METHOD BOM_PRES_METHOD NADI_LAT NADI_LON NADI_CAT NADI_WIND NADI_PRES WELLINGTON_LAT WELLINGTON_LON WELLINGTON_WIND WELLINGTON_PRES DS824_LAT DS824_LON DS824_STAGE DS824_WIND DS824_PRES TD9636_LAT TD9636_LON TD9636_STAGE TD9636_WIND TD9636_PRES TD9635_LAT TD9635_LON TD9635_WIND TD9635_PRES TD9635_ROCI NEUMANN_LAT NEUMANN_LON NEUMANN_CLASS NEUMANN_WIND NEUMANN_PRES MLC_LAT MLC_LON MLC_CLASS MLC_WIND MLC_PRES USA_GUST BOM_GUST BOM_GUST_PER REUNION_GUST REUNION_GUST_PER USA_SEAHGT USA_SEARAD_NE USA_SEARAD_SE USA_SEARAD_SW USA_SEARAD_NW STORM_SPEED STORM_DIR
1993029S11178 1993 8 SP MM LIN 1993-01-29 00:00:00 TS -11.0000 178.100 main 610 598 O___________O_ jtwc_sh SH151993 -11.0000 178.100 15 -1 -11.0000 178.100 TC 15 9 89
1993029S11178 1993 8 SP MM LIN 1993-01-29 03:00:00 TS -10.9901 178.540 main 598 588 P___________P_ SH151993 -10.9901 178.540 15 -1 -10.9901 178.540 TC 15 9 90
1993029S11178 1993 8 SP MM LIN 1993-01-29 06:00:00 TS -11.0000 179.000 main 588 583 O___________O_ jtwc_sh SH151993 -11.0000 179.000 15 -1 -11.0000 179.000 TC 15 9 93
1993029S11178 1993 8 SP MM LIN 1993-01-29 09:00:00 TS -11.0425 179.492 main 583 571 P___________P_ SH151993 -11.0425 179.492 17 -1 -11.0425 179.492 TC 17 10 96
1993029S11178 1993 8 SP MM LIN 1993-01-29 12:00:00 TS -11.1000 180.000 main 571 571 O___________O_ jtwc_sh SH151993 -11.1000 180.000 20 -1 -11.1000 180.000 TC 20 10 96
1993029S11178 1993 8 SP MM LIN 1993-01-29 15:00:00 TS -11.1499 180.500 main 574 563 P___________P_ SH151993 -11.1499 -179.500 20 -1 -11.1499 -179.500 TC 20 10 96
1993029S11178 1993 8 SP MM LIN 1993-01-29 18:00:00 TS -11.2000 181.000 main 572 572 O___________O_ jtwc_sh SH151993 -11.2000 -179.000 20 -1 -11.2000 -179.000 TC 20 10 96
1993029S11178 1993 8 SP MM LIN 1993-01-29 21:00:00 TS -11.2499 181.493 main 585 575 P___________P_ SH151993 -11.2499 -178.507 20 -1 -11.2499 -178.507 TC 20 10 96
1993029S11178 1993 8 SP MM LIN 1993-01-30 00:00:00 TS -11.3000 182.000 main 593 567 O___________O_ jtwc_sh SH151993 -11.3000 -178.000 20 -1 -11.3000 -178.000 TC 20 10 95
1993029S11178 1993 8 SP MM LIN 1993-01-30 03:00:00 TS -11.3350 182.550 main 557 503 P___________P_ SH151993 -11.3350 -177.450 22 -1 -11.3350 -177.450 TC 22 11 95
1993029S11178 1993 8 SP MM LIN 1993-01-30 06:00:00 TS -11.4000 183.100 main 503 450 O___________O_ jtwc_sh SH151993 -11.4000 -176.900 25 -1 -11.4000 -176.900 TC 25 10 101
1993029S11178 1993 8 SP MM LIN 1993-01-30 09:00:00 TS -11.5273 183.600 main 450 392 P___________P_ SH151993 -11.5273 -176.400 25 -1 -11.5273 -176.400 TC 25 10 107
1993029S11178 1993 8 SP MM LIN 1993-01-30 12:00:00 TS -11.7000 184.100 main 392 334 O___________O_ jtwc_sh SH151993 -11.7000 -175.900 25 -1 -11.7000 -175.900 TC 25 11 109
1993029S11178 1993 8 SP MM LIN 1993-01-30 15:00:00 TS -11.8850 184.650 main 325 267 P___________P_ SH151993 -11.8850 -175.350 27 -1 -11.8850 -175.350 TC 27 12 110
1993029S11178 1993 8 SP MM LIN 1993-01-30 18:00:00 TS -12.1000 185.200 main 267 210 O___________O_ jtwc_sh SH151993 -12.1000 -174.800 30 -1 -12.1000 -174.800 TC 30 11 113
1993029S11178 1993 8 SP MM LIN 1993-01-30 21:00:00 TS -12.3349 185.723 main 210 147 P___________P_ SH151993 -12.3349 -174.277 32 -1 -12.3349 -174.277 TC 32 11 117
1993029S11178 1993 8 SP MM LIN 1993-01-31 00:00:00 TS -12.5889 186.178 main 147 101 O_______O___O_ jtwc_sh SH151993 -12.6000 -173.800 35 0 -12.5000 -174.000 30 997 -12.6000 -173.800 TC 35 10 125
1993029S11178 1993 8 SP MM LIN 1993-01-31 03:00:00 TS -12.8818 186.535 main 101 46 P_______P___P_ SH151993 -12.8923 -173.400 37 0 -12.8400 -173.725 32 996 -12.8923 -173.400 TC 37 9 131
1993029S11178 1993 8 SP MM LIN 1993-01-31 06:00:00 TS -13.2000 186.891 main 46 0 O_______O___O_ jtwc_sh SH151993 -13.2000 -173.000 40 0 -13.2000 -173.400 35 995 -13.2000 -173.000 TC 40 10 129
1993029S11178 1993 8 SP MM LIN 1993-01-31 09:00:00 TS -13.5208 187.333 main 0 0 P_______P___P_ SH151993 -13.4850 -172.507 45 0 -13.5924 -172.987 40 991 -13.4850 -172.507 TC 45 11 126
1993029S11178 1993 8 SP MM LIN 1993-01-31 12:00:00 TS -13.8667 187.833 main 11 11 O_______O___O_ jtwc_sh SH151993 -13.8000 -172.000 50 0 -14.0000 -172.500 45 987 -13.8000 -172.000 TC 50 12 127
1993029S11178 1993 8 SP MM LIN 1993-01-31 15:00:00 TS -14.2542 188.337 main 77 77 P_______P___P_ SH151993 -14.1775 -171.520 55 0 -14.4076 -171.950 50 983 -14.1775 -171.520 TC 55 12 130
1993029S11178 1993 8 SP MM LIN 1993-01-31 18:00:00 TS -14.6667 188.800 main 147 147 O_______O___O_ jtwc_sh SH151993 -14.6000 -171.100 60 0 -14.8000 -171.400 55 980 -14.6000 -171.100 TC 60 12 135
1993029S11178 1993 8 SP MM LIN 1993-01-31 21:00:00 TS -15.0633 189.188 main 209 209 P_______P___P_ SH151993 -15.0349 -170.770 62 0 -15.1200 -170.897 57 977 -15.0349 -170.770 TC 62 11 141
1993029S11178 1993 8 SP MM LIN 1993-02-01 00:00:00 TS -15.5000 189.500 main 263 263 O_______O___O_ jtwc_sh SH151993 -15.5000 -170.500 65 1 -15.5000 -170.500 60 975 -15.5000 -170.500 TC 65 11 151
1993029S11178 1993 8 SP MM LIN 1993-02-01 03:00:00 TS -16.0232 189.734 main 319 319 P_______P___P_ SH151993 -15.9999 -170.242 67 1 -16.0696 -170.314 60 975 -15.9999 -170.242 TC 67 12 157
1993029S11178 1993 8 SP MM LIN 1993-02-01 06:00:00 TS -16.5667 189.967 main 392 392 O_______O___O_ jtwc_sh SH151993 -16.5000 -170.000 70 1 -16.7000 -170.100 60 975 -16.5000 -170.000 TC 70 12 152
1993029S11178 1993 8 SP MM LIN 1993-02-01 09:00:00 TS -17.0676 190.302 main 456 456 P_______P___P_ SH151993 -16.9574 -169.757 72 1 -17.2878 -169.581 62 972 -16.9574 -169.757 TC 72 12 145
1993029S11178 1993 8 SP MM LIN 1993-02-01 12:00:00 TS -17.5333 190.667 main 517 517 O_______O___O_ jtwc_sh SH151993 -17.4000 -169.500 75 1 -17.8000 -169.000 65 970 -17.4000 -169.500 TC 75 11 143
1993029S11178 1993 8 SP MM LIN 1993-02-01 15:00:00 TS -17.9574 191.000 main 581 581 P_______P___P_ SH151993 -17.8499 -169.215 80 1 -18.1723 -168.569 65 970 -17.8499 -169.215 TC 80 11 143
1993029S11178 1993 8 SP MM LIN 1993-02-01 18:00:00 TS -18.3667 191.333 main 636 636 O_______O___O_ jtwc_sh SH151993 -18.3000 -168.900 85 2 -18.5000 -168.200 65 970 -18.3000 -168.900 TC 85 11 143
1993029S11178 1993 8 SP MM LIN 1993-02-01 21:00:00 TS -18.8075 191.683 main 697 697 P_______P___P_ SH151993 -18.7574 -168.565 87 2 -18.9075 -167.820 65 970 -18.7574 -168.565 TC 87 11 143
1993029S11178 1993 8 SP MM LIN 1993-02-02 00:00:00 TS -19.2333 192.033 main 752 752 O_______O___O_ jtwc_sh SH151993 -19.2000 -168.200 90 2 -19.3000 -167.500 65 970 -19.2000 -168.200 TC 90 10 141
1993029S11178 1993 8 SP MM LIN 1993-02-02 03:00:00 TS -19.6225 192.377 main 813 813 P_______P___P_ SH151993 -19.6225 -167.800 90 2 -19.6224 -167.270 65 970 -19.6225 -167.800 TC 90 10 139
1993029S11178 1993 8 SP MM LIN 1993-02-02 06:00:00 TS -19.9667 192.700 main 867 867 O_______O___O_ jtwc_sh SH151993 -20.0000 -167.400 90 2 -19.9000 -167.100 65 970 -20.0000 -167.400 TC 90 9 139
1993029S11178 1993 8 SP MM LIN 1993-02-02 09:00:00 TS -20.2699 192.986 main 913 913 P_______P___P_ SH151993 -20.3223 -167.050 87 2 -20.1650 -166.942 65 970 -20.3223 -167.050 TC 87 8 137
1993029S11178 1993 8 SP MM LIN 1993-02-02 12:00:00 TS -20.5333 193.267 main 950 950 O_______O___O_ jtwc_sh SH151993 -20.6000 -166.700 85 2 -20.4000 -166.800 65 970 -20.6000 -166.700 TC 85 8 132
1993029S11178 1993 8 SP MM LIN 1993-02-02 15:00:00 TS -20.7767 193.591 main 996 996 P_______P___P_ SH151993 -20.8651 -166.292 77 1 -20.6000 -166.642 65 970 -20.8651 -166.292 TC 77 8 128
1993029S11178 1993 8 SP MM LIN 1993-02-02 18:00:00 TS -21.0000 193.900 main 1033 1033 O_______O___O_ jtwc_sh SH151993 -21.1000 -165.900 70 1 -20.8000 -166.500 65 970 -21.1000 -165.900 TC 70 7 130
1993029S11178 1993 8 SP MM LIN 1993-02-02 21:00:00 TS -21.2191 194.166 main 1070 1070 P_______P___P_ SH151993 -21.3000 -165.562 62 0 -21.0575 -166.378 62 972 -21.3000 -165.562 TC 62 6 135
1993029S11178 1993 8 SP MM LIN 1993-02-03 00:00:00 TS -21.4333 194.367 main 1100 1100 O_______O___O_ jtwc_sh SH151993 -21.5000 -165.300 55 0 -21.3000 -166.300 60 975 -21.5000 -165.300 TC 55 5 144
1993029S11178 1993 8 SP MM LIN 1993-02-03 03:00:00 TS -21.6475 194.497 main 1124 1124 P_______P___P_ SH151993 -21.7424 -165.105 50 0 -21.4575 -166.300 57 977 -21.7424 -165.105 TC 50 5 157
1993029S11178 1993 8 SP MM LIN 1993-02-03 06:00:00 TS -21.8667 194.567 main 1156 1156 O_______O___O_ jtwc_sh SH151993 -22.0000 -165.000 45 0 -21.6000 -166.300 55 980 -22.0000 -165.000 TC 45 5 166
1993029S11178 1993 8 SP MM LIN 1993-02-03 09:00:00 TS -22.1000 194.620 main 1174 1174 P_______P___P_ SH151993 -22.2575 -164.970 42 0 -21.7850 -166.200 55 980 -22.2575 -164.970 TC 42 5 173
1993029S11178 1993 8 SP MM LIN 1993-02-03 12:00:00 TS -22.3333 194.633 main 1191 1191 O_______O___O_ jtwc_sh SH151993 -22.5000 -165.000 40 0 -22.0000 -166.100 55 980 -22.5000 -165.000 TC 40 5 0
1993029S11178 1993 8 SP MM LIN 1993-02-03 15:00:00 TS -22.5500 194.618 main 1209 1209 P_______P___P_ SH151993 -22.7150 -165.035 37 0 -22.2200 -166.077 52 982 -22.7150 -165.035 TC 37 4 197
1993029S11178 1993 8 SP MM LIN 1993-02-03 18:00:00 TS -22.7400 194.500 main 1220 1220 O_______O___O_ jtwc_sh SH151993 -22.9000 -165.100 35 0 -22.5000 -166.100 50 985 -22.9000 -165.100 TC 35 5 212
1993029S11178 1993 8 SP MM LIN 1993-02-03 21:00:00 TS -22.9713 194.333 main 1236 1236 P_______P___P_ SH151993 -23.0575 -165.192 32 -1 -22.8850 -166.142 47 986 -23.0575 -165.192 TC 32 6 215
1993029S11178 1993 8 SP MM LIN 1993-02-04 00:00:00 TS -23.2667 194.100 main 1252 1247 O_______O___O_ jtwc_sh SH151993 -23.2000 -165.300 30 -1 -23.3000 -166.200 45 987 -23.2000 -165.300 TC 30 9 218
1993029S11178 1993 8 SP MM LIN 1993-02-04 03:00:00 NR -23.6500 193.750 main 1259 1259 ________P_____ SH151993 -1 -23.6500 -166.250 45 987 TC 8 207
1993029S11178 1993 8 SP MM LIN 1993-02-04 06:00:00 NR -24.0000 193.700 main 1298 1298 ________O_____ -1 -24.0000 -166.300 45 987 7 185
1993029S11178 1993 8 SP MM LIN 1993-02-04 09:00:00 NR -24.3625 193.672 main 1337 1337 ________P_____ -1 -24.3625 -166.328 42 988 8 186
1993029S11178 1993 8 SP MM LIN 1993-02-04 12:00:00 NR -24.8000 193.600 main 1372 1372 ________O_____ -1 -24.8000 -166.400 40 990 10 192
1993029S11178 1993 8 SP MM LIN 1993-02-04 15:00:00 NR -25.3474 193.445 main 1413 1413 ________P_____ -1 -25.3474 -166.555 37 992 13 197
1993029S11178 1993 8 SP MM LIN 1993-02-04 18:00:00 NR -26.0000 193.200 35 995 wellington main 1476 1476 ________O_____ -1 -26.0000 -166.800 35 995 15 200
1993029S11178 1993 8 SP MM LIN 1993-02-04 21:00:00 NR -26.7302 192.874 main 1537 1537 ________P_____ -1 -26.7302 -167.126 32 996 16 203
1993029S11178 1993 8 SP MM LIN 1993-02-05 00:00:00 NR -27.5000 192.500 30 997 wellington main 1607 ________O_____ -1 -27.5000 -167.500 30 997 17 203

Digital Typhoon Data and Search

About IBTrACS Database

This database is a web-friendly format of International Best Track Archive for Climate Stewardship (IBTrACS), a global best track data archive curated by NOAA dating back to 1842.

Updated: 2021-10-27